createdAt,value
2019-01-20T00:03:25.764Z,58.20
2019-01-20T00:08:29.722Z,58.00
2019-01-20T00:13:33.627Z,58.00
2019-01-20T00:18:37.669Z,58.30
2019-01-20T00:23:41.851Z,58.00
2019-01-20T00:28:45.730Z,59.20
2019-01-20T00:33:50.560Z,58.10
2019-01-20T00:38:54.717Z,58.00
2019-01-20T00:43:58.807Z,58.60
2019-01-20T00:49:02.798Z,58.10
2019-01-20T00:54:06.750Z,57.40
2019-01-20T00:59:10.891Z,59.10
2019-01-20T01:04:14.905Z,58.50
2019-01-20T01:09:18.835Z,58.80
2019-01-20T01:14:22.943Z,58.60
2019-01-20T01:19:26.955Z,59.00
2019-01-20T01:24:30.893Z,58.90
2019-01-20T01:29:54.024Z,59.30
2019-01-20T01:34:57.967Z,58.40
2019-01-20T01:40:01.968Z,57.80
2019-01-20T01:45:08.271Z,58.00
2019-01-20T01:50:17.564Z,58.80
2019-01-20T01:55:21.732Z,58.80
2019-01-20T02:00:25.816Z,59.60
2019-01-20T02:05:29.851Z,58.60
2019-01-20T02:10:34.743Z,58.60
2019-01-20T02:15:38.903Z,58.90
2019-01-20T02:20:42.844Z,58.50
2019-01-20T02:25:48.000Z,58.40
2019-01-20T02:30:52.065Z,58.40
2019-01-20T02:35:56.051Z,58.40
2019-01-20T02:41:00.219Z,58.30
2019-01-20T02:46:04.384Z,58.70
2019-01-20T02:51:08.460Z,58.10
2019-01-20T02:56:12.691Z,58.00
2019-01-20T03:01:17.219Z,59.30
2019-01-20T03:06:21.363Z,58.00
2019-01-20T03:11:25.433Z,57.60
2019-01-20T03:16:29.495Z,57.90
2019-01-20T03:21:33.652Z,57.70
2019-01-20T03:26:37.632Z,57.80
2019-01-20T03:31:41.745Z,57.90
2019-01-20T03:36:46.996Z,57.70
2019-01-20T03:41:51.099Z,58.30
2019-01-20T03:46:55.196Z,58.40
2019-01-20T03:51:59.243Z,57.60
2019-01-20T03:57:03.479Z,57.70
2019-01-20T04:02:07.562Z,57.60
2019-01-20T04:07:11.623Z,57.90
2019-01-20T04:12:20.529Z,57.80
2019-01-20T04:17:21.576Z,57.40
2019-01-20T04:22:25.667Z,57.30
2019-01-20T04:27:30.294Z,57.30
2019-01-20T04:32:34.371Z,57.40
2019-01-20T04:37:38.483Z,57.30
2019-01-20T04:42:42.623Z,57.40
2019-01-20T04:47:46.683Z,57.30
2019-01-20T04:52:52.809Z,57.50
2019-01-20T04:57:57.101Z,57.20
2019-01-20T05:03:01.206Z,57.00
2019-01-20T05:08:05.684Z,57.20
2019-01-20T05:13:09.759Z,57.90
2019-01-20T05:18:13.859Z,58.00
2019-01-20T05:23:17.983Z,57.20
2019-01-20T05:28:22.074Z,57.10
2019-01-20T05:33:26.075Z,57.00
2019-01-20T05:38:30.160Z,57.00
2019-01-20T05:43:34.302Z,57.00
2019-01-20T05:48:38.380Z,56.80
2019-01-20T05:53:42.377Z,57.10
2019-01-20T05:58:46.489Z,57.50
2019-01-20T06:03:50.489Z,57.50
2019-01-20T06:08:54.572Z,57.10
2019-01-20T06:13:58.763Z,57.60
2019-01-20T06:19:02.908Z,57.10
2019-01-20T06:24:06.994Z,57.00
2019-01-20T06:29:11.059Z,57.70
2019-01-20T06:34:15.117Z,57.20
2019-01-20T06:39:21.183Z,56.90
2019-01-20T06:44:25.291Z,57.00
2019-01-20T06:49:30.220Z,56.90
2019-01-20T06:54:34.379Z,56.80
2019-01-20T06:59:40.585Z,57.10
2019-01-20T07:04:46.431Z,57.20
2019-01-20T07:09:51.535Z,57.70
2019-01-20T07:15:00.000Z,57.30
2019-01-20T07:20:04.779Z,57.20
2019-01-20T07:25:09.095Z,57.30
2019-01-20T07:30:18.915Z,57.50
2019-01-20T07:35:26.747Z,57.10
2019-01-20T07:40:30.804Z,57.40
2019-01-20T07:45:34.871Z,56.60
2019-01-20T07:50:40.318Z,57.00
2019-01-20T07:55:44.396Z,57.50
2019-01-20T08:00:48.487Z,56.70
2019-01-20T08:05:52.889Z,57.60
2019-01-20T08:10:58.564Z,56.90
2019-01-20T08:16:06.717Z,56.60
2019-01-20T08:21:10.687Z,56.70
2019-01-20T08:26:14.747Z,55.90
2019-01-20T08:31:18.795Z,56.60
2019-01-20T08:36:22.858Z,56.60
2019-01-20T08:41:26.912Z,56.90
2019-01-20T08:47:15.107Z,56.90
2019-01-20T08:52:19.247Z,57.70
2019-01-20T08:57:23.308Z,57.20
2019-01-20T09:02:27.615Z,57.80
2019-01-20T09:07:31.691Z,57.90
2019-01-20T09:12:36.695Z,57.70
2019-01-20T09:17:40.673Z,57.60
2019-01-20T09:22:44.664Z,57.80
2019-01-20T09:27:48.707Z,57.40
2019-01-20T09:32:52.751Z,57.40
2019-01-20T09:37:56.794Z,58.10
2019-01-20T09:43:00.771Z,58.20
2019-01-20T09:48:05.615Z,57.60
2019-01-20T09:53:09.728Z,59.00
2019-01-20T09:58:13.816Z,58.00
2019-01-20T10:03:17.913Z,58.20
2019-01-20T10:08:22.007Z,58.40
2019-01-20T10:13:26.067Z,57.70
2019-01-20T10:18:30.155Z,58.10
2019-01-20T10:23:34.155Z,58.20
2019-01-20T10:28:38.267Z,58.20
2019-01-20T10:33:42.334Z,58.40
2019-01-20T10:38:46.379Z,58.70
2019-01-20T10:43:53.505Z,58.80
2019-01-20T10:48:57.787Z,58.00
2019-01-20T10:54:01.912Z,58.20
2019-01-20T10:59:06.630Z,58.80
2019-01-20T11:04:10.698Z,58.50
2019-01-20T11:09:14.767Z,58.80
2019-01-20T11:14:18.824Z,60.30
2019-01-20T11:19:22.911Z,58.50
2019-01-20T11:24:26.992Z,57.80
2019-01-20T11:29:50.248Z,56.40
2019-01-20T11:34:54.240Z,56.00
2019-01-20T11:39:59.168Z,57.10
2019-01-20T11:45:03.342Z,55.80
2019-01-20T11:50:08.902Z,55.90
2019-01-20T11:55:13.972Z,55.50
2019-01-20T12:00:20.839Z,55.70
2019-01-20T12:05:24.915Z,56.20
2019-01-20T12:10:30.816Z,56.40
2019-01-20T12:15:37.859Z,56.70
2019-01-20T12:20:42.080Z,59.10
2019-01-20T12:25:48.007Z,57.00
2019-01-20T12:30:56.519Z,57.20
2019-01-20T12:36:02.592Z,57.10
2019-01-20T12:41:06.659Z,58.00
2019-01-20T12:46:13.611Z,56.90
2019-01-20T12:51:17.658Z,57.10
2019-01-20T12:56:21.767Z,58.40
2019-01-20T13:01:25.866Z,56.70
2019-01-20T13:06:30.006Z,58.00
2019-01-20T13:11:33.979Z,56.50
2019-01-20T13:16:38.037Z,56.70
2019-01-20T13:21:42.084Z,56.40
2019-01-20T13:26:46.313Z,57.10
2019-01-20T13:31:50.288Z,56.40
2019-01-20T13:36:54.359Z,56.40
2019-01-20T13:41:58.584Z,57.10
2019-01-20T13:47:02.627Z,57.20
2019-01-20T13:52:06.771Z,57.40
2019-01-20T13:57:10.837Z,57.90
2019-01-20T14:02:14.956Z,57.70
2019-01-20T14:07:18.931Z,58.20
2019-01-20T14:12:22.988Z,58.20
2019-01-20T14:17:27.054Z,57.60
2019-01-20T14:22:31.116Z,57.60
2019-01-20T14:27:35.189Z,57.80
2019-01-20T14:32:39.231Z,58.40
2019-01-20T14:37:43.379Z,57.00
2019-01-20T14:42:47.419Z,57.50
2019-01-20T14:47:51.592Z,57.50
2019-01-20T14:52:55.847Z,58.60
2019-01-20T14:57:59.912Z,58.30
2019-01-20T15:03:04.575Z,58.50
2019-01-20T15:08:09.285Z,58.40
2019-01-20T15:13:13.353Z,59.30
2019-01-20T15:18:17.641Z,59.40
2019-01-20T15:23:21.728Z,58.70
2019-01-20T15:28:25.803Z,58.50
2019-01-20T15:33:29.872Z,58.60
2019-01-20T15:38:34.004Z,58.30
2019-01-20T15:43:38.104Z,58.70
2019-01-20T15:48:42.307Z,59.20
2019-01-20T15:53:46.375Z,59.40
2019-01-20T15:58:50.446Z,59.20
2019-01-20T16:03:54.511Z,59.20
2019-01-20T16:08:58.591Z,59.00
2019-01-20T16:14:02.575Z,59.20
2019-01-20T16:19:06.639Z,58.70
2019-01-20T16:24:10.712Z,58.40
2019-01-20T16:29:14.807Z,58.50
2019-01-20T16:34:19.197Z,58.80
2019-01-20T16:39:23.430Z,58.90
2019-01-20T16:44:27.488Z,58.80
2019-01-20T16:49:31.729Z,59.20
2019-01-20T16:54:36.020Z,59.30
2019-01-20T17:00:09.954Z,59.20
2019-01-20T17:05:14.315Z,59.40
2019-01-20T17:10:20.439Z,59.50
2019-01-20T17:15:29.806Z,59.30
2019-01-20T17:20:33.853Z,59.60
2019-01-20T17:25:37.945Z,59.30
2019-01-20T17:30:42.211Z,60.20
2019-01-20T17:35:46.935Z,59.40
2019-01-20T17:40:51.061Z,59.30
2019-01-20T17:45:55.166Z,59.30
2019-01-20T17:50:59.224Z,59.60
2019-01-20T17:56:03.302Z,58.50
2019-01-20T18:01:08.428Z,59.30
2019-01-20T18:06:12.530Z,59.50
2019-01-20T18:11:16.591Z,59.20
2019-01-20T18:16:20.579Z,59.40
2019-01-20T18:21:24.632Z,59.00
2019-01-20T18:26:30.819Z,59.30
2019-01-20T18:31:35.261Z,59.00
2019-01-20T18:36:39.364Z,59.40
2019-01-20T18:41:43.416Z,59.00
2019-01-20T18:46:47.469Z,59.20
2019-01-20T18:51:51.535Z,59.20
2019-01-20T18:56:55.619Z,59.30
2019-01-20T19:02:01.112Z,58.80
2019-01-20T19:07:05.184Z,59.40
2019-01-20T19:12:09.391Z,58.80
2019-01-20T19:17:13.515Z,58.80
2019-01-20T19:22:17.597Z,58.70
2019-01-20T19:27:22.939Z,58.70
2019-01-20T19:32:26.986Z,58.70
2019-01-20T19:37:31.051Z,58.70
2019-01-20T19:42:35.114Z,58.30
2019-01-20T19:47:39.264Z,59.40
2019-01-20T19:52:43.352Z,58.90
2019-01-20T19:57:47.426Z,58.60
2019-01-20T20:02:51.503Z,58.60
2019-01-20T20:07:56.511Z,58.70
2019-01-20T20:13:00.596Z,58.50
2019-01-20T20:18:05.283Z,58.70
2019-01-20T20:23:09.359Z,58.70
2019-01-20T20:28:13.461Z,58.50
2019-01-20T20:33:17.555Z,57.80
2019-01-20T20:38:21.667Z,58.30
2019-01-20T20:43:25.771Z,58.50
2019-01-20T20:48:29.884Z,58.20
2019-01-20T20:53:33.983Z,58.60
2019-01-20T20:58:38.141Z,58.40
2019-01-20T21:03:42.538Z,58.90
2019-01-20T21:08:48.523Z,58.50
2019-01-20T21:13:52.428Z,58.40
2019-01-20T21:18:56.504Z,58.10
2019-01-20T21:24:01.800Z,58.60
2019-01-20T21:29:05.848Z,58.60
2019-01-20T21:34:09.931Z,58.50
2019-01-20T21:39:13.999Z,58.40
2019-01-20T21:44:17.932Z,58.00
2019-01-20T21:49:22.004Z,58.00
2019-01-20T21:54:26.088Z,58.30
2019-01-20T21:59:30.068Z,58.30
2019-01-20T22:04:34.100Z,58.20
2019-01-20T22:09:38.159Z,58.10
2019-01-20T22:14:42.238Z,58.10
2019-01-20T22:19:46.333Z,58.00
2019-01-20T22:24:50.507Z,57.90
2019-01-20T22:29:54.799Z,58.20
2019-01-20T22:34:58.941Z,58.00
2019-01-20T22:40:03.025Z,57.80
2019-01-20T22:45:08.799Z,58.10
2019-01-20T22:50:13.078Z,58.10
2019-01-20T22:55:17.368Z,57.90
2019-01-20T23:00:47.071Z,57.90
2019-01-20T23:05:53.064Z,57.70
2019-01-20T23:10:57.227Z,58.20
2019-01-20T23:16:03.188Z,58.10
2019-01-20T23:21:07.307Z,57.40
2019-01-20T23:26:11.380Z,57.20
2019-01-20T23:31:15.475Z,57.10
2019-01-20T23:36:19.629Z,57.30
2019-01-20T23:41:23.620Z,57.00
2019-01-20T23:46:27.735Z,57.00
2019-01-20T23:51:32.011Z,57.10
2019-01-20T23:56:35.996Z,56.80
